sensor_id;sensor_type;location;lat;lon;timestamp;pressure;altitude;pressure_sealevel;temperature;humidity
8051;BME280;4068;42.158;24.732;2022-08-21T00:00:20;98953.47;;;20.42;100.00
8051;BME280;4068;42.158;24.732;2022-08-21T00:02:49;98969.78;;;20.33;100.00
8051;BME280;4068;42.158;24.732;2022-08-21T00:05:15;98976.03;;;20.34;100.00
8051;BME280;4068;42.158;24.732;2022-08-21T00:07:41;98979.13;;;20.31;100.00
8051;BME280;4068;42.158;24.732;2022-08-21T00:10:07;98997.78;;;20.39;100.00
8051;BME280;4068;42.158;24.732;2022-08-21T00:12:32;98976.81;;;20.28;100.00
8051;BME280;4068;42.158;24.732;2022-08-21T00:14:59;98990.97;;;20.43;100.00
8051;BME280;4068;42.158;24.732;2022-08-21T00:17:24;98984.56;;;20.44;100.00
8051;BME280;4068;42.158;24.732;2022-08-21T00:19:50;98980.47;;;20.62;100.00
8051;BME280;4068;42.158;24.732;2022-08-21T00:22:15;98961.41;;;20.57;100.00
8051;BME280;4068;42.158;24.732;2022-08-21T00:24:41;98976.91;;;20.48;100.00
8051;BME280;4068;42.158;24.732;2022-08-21T00:27:06;98962.97;;;20.38;100.00
8051;BME280;4068;42.158;24.732;2022-08-21T00:29:32;98968.63;;;20.49;100.00
8051;BME280;4068;42.158;24.732;2022-08-21T00:31:57;98956.03;;;20.57;100.00
8051;BME280;4068;42.158;24.732;2022-08-21T00:34:24;98941.28;;;20.46;100.00
8051;BME280;4068;42.158;24.732;2022-08-21T00:36:49;98962.03;;;20.59;100.00
8051;BME280;4068;42.158;24.732;2022-08-21T00:39:15;98973.25;;;20.69;100.00
8051;BME280;4068;42.158;24.732;2022-08-21T00:41:41;98962.25;;;20.64;100.00
8051;BME280;4068;42.158;24.732;2022-08-21T00:44:10;98943.72;;;20.41;100.00
8051;BME280;4068;42.158;24.732;2022-08-21T00:46:37;98902.69;;;20.25;100.00
8051;BME280;4068;42.158;24.732;2022-08-21T00:49:04;98945.44;;;20.62;100.00
8051;BME280;4068;42.158;24.732;2022-08-21T00:51:43;98947.53;;;20.60;100.00
8051;BME280;4068;42.158;24.732;2022-08-21T00:54:12;98948.34;;;20.60;100.00
8051;BME280;4068;42.158;24.732;2022-08-21T00:56:38;98947.31;;;20.48;100.00
8051;BME280;4068;42.158;24.732;2022-08-21T00:59:05;98953.25;;;20.43;100.00
8051;BME280;4068;42.158;24.732;2022-08-21T01:01:31;98961.13;;;20.45;100.00
8051;BME280;4068;42.158;24.732;2022-08-21T01:03:57;98955.38;;;20.55;100.00
8051;BME280;4068;42.158;24.732;2022-08-21T01:06:22;98923.25;;;20.40;100.00
8051;BME280;4068;42.158;24.732;2022-08-21T01:08:48;98951.22;;;20.52;100.00
8051;BME280;4068;42.158;24.732;2022-08-21T01:11:14;98951.88;;;20.61;100.00
8051;BME280;4068;42.158;24.732;2022-08-21T01:13:40;98951.69;;;20.62;100.00
8051;BME280;4068;42.158;24.732;2022-08-21T01:16:11;98940.31;;;20.67;100.00
8051;BME280;4068;42.158;24.732;2022-08-21T01:18:37;98927.47;;;20.69;100.00
8051;BME280;4068;42.158;24.732;2022-08-21T01:21:11;98913.38;;;20.67;100.00
8051;BME280;4068;42.158;24.732;2022-08-21T01:23:39;98895.31;;;20.54;100.00
8051;BME280;4068;42.158;24.732;2022-08-21T01:26:06;98927.06;;;20.72;100.00
8051;BME280;4068;42.158;24.732;2022-08-21T01:28:34;98905.69;;;20.64;100.00
8051;BME280;4068;42.158;24.732;2022-08-21T01:31:05;98910.72;;;20.74;100.00
8051;BME280;4068;42.158;24.732;2022-08-21T01:33:30;98909.03;;;20.73;100.00
8051;BME280;4068;42.158;24.732;2022-08-21T01:35:56;98913.41;;;20.74;100.00
8051;BME280;4068;42.158;24.732;2022-08-21T01:38:21;98908.44;;;20.77;100.00
8051;BME280;4068;42.158;24.732;2022-08-21T01:40:47;98913.19;;;20.68;100.00
8051;BME280;4068;42.158;24.732;2022-08-21T01:43:12;98913.19;;;20.68;100.00
8051;BME280;4068;42.158;24.732;2022-08-21T01:45:38;98917.53;;;20.69;100.00
8051;BME280;4068;42.158;24.732;2022-08-21T01:48:03;98921.22;;;20.55;100.00
8051;BME280;4068;42.158;24.732;2022-08-21T01:50:29;98912.28;;;20.55;100.00
8051;BME280;4068;42.158;24.732;2022-08-21T01:52:55;98933.25;;;20.66;100.00
8051;BME280;4068;42.158;24.732;2022-08-21T01:55:21;98936.31;;;20.49;100.00
8051;BME280;4068;42.158;24.732;2022-08-21T01:57:47;98944.59;;;20.55;100.00
8051;BME280;4068;42.158;24.732;2022-08-21T02:00:15;98958.72;;;20.57;100.00
8051;BME280;4068;42.158;24.732;2022-08-21T02:02:42;98977.16;;;20.60;100.00
8051;BME280;4068;42.158;24.732;2022-08-21T02:05:08;98981.53;;;20.61;100.00
8051;BME280;4068;42.158;24.732;2022-08-21T02:07:39;99003.34;;;20.73;100.00
8051;BME280;4068;42.158;24.732;2022-08-21T02:10:07;98987.56;;;20.76;100.00
8051;BME280;4068;42.158;24.732;2022-08-21T02:12:33;98995.47;;;20.84;100.00
8051;BME280;4068;42.158;24.732;2022-08-21T02:14:58;98990.31;;;20.83;100.00
8051;BME280;4068;42.158;24.732;2022-08-21T02:17:24;98987.19;;;20.79;100.00
8051;BME280;4068;42.158;24.732;2022-08-21T02:19:49;98939.63;;;20.51;100.00
8051;BME280;4068;42.158;24.732;2022-08-21T02:22:15;98980.97;;;20.79;100.00
8051;BME280;4068;42.158;24.732;2022-08-21T02:24:40;98992.75;;;20.78;100.00
8051;BME280;4068;42.158;24.732;2022-08-21T02:27:06;98996.09;;;20.80;100.00
8051;BME280;4068;42.158;24.732;2022-08-21T02:29:31;98990.50;;;20.81;100.00
8051;BME280;4068;42.158;24.732;2022-08-21T02:31:56;99000.88;;;20.84;100.00
8051;BME280;4068;42.158;24.732;2022-08-21T02:34:22;99007.09;;;20.92;100.00
8051;BME280;4068;42.158;24.732;2022-08-21T02:36:48;99012.94;;;20.95;100.00
8051;BME280;4068;42.158;24.732;2022-08-21T02:39:13;98988.00;;;20.73;100.00
8051;BME280;4068;42.158;24.732;2022-08-21T02:41:39;99009.19;;;20.90;100.00
8051;BME280;4068;42.158;24.732;2022-08-21T02:44:05;99019.31;;;20.88;100.00
8051;BME280;4068;42.158;24.732;2022-08-21T02:46:31;99013.72;;;20.82;100.00
8051;BME280;4068;42.158;24.732;2022-08-21T02:48:57;99023.88;;;20.80;100.00
8051;BME280;4068;42.158;24.732;2022-08-21T02:51:22;99002.44;;;20.65;100.00
8051;BME280;4068;42.158;24.732;2022-08-21T02:53:49;99016.41;;;20.76;100.00
8051;BME280;4068;42.158;24.732;2022-08-21T02:56:16;99020.97;;;20.82;100.00
8051;BME280;4068;42.158;24.732;2022-08-21T02:58:49;99018.91;;;20.91;100.00
8051;BME280;4068;42.158;24.732;2022-08-21T03:01:17;99013.34;;;20.92;100.00
8051;BME280;4068;42.158;24.732;2022-08-21T03:03:45;99010.81;;;20.91;100.00
8051;BME280;4068;42.158;24.732;2022-08-21T03:06:14;99010.66;;;20.92;100.00
8051;BME280;4068;42.158;24.732;2022-08-21T03:08:40;98999.63;;;20.87;100.00
8051;BME280;4068;42.158;24.732;2022-08-21T03:11:07;99009.59;;;20.86;100.00
8051;BME280;4068;42.158;24.732;2022-08-21T03:13:33;99005.84;;;20.88;100.00
8051;BME280;4068;42.158;24.732;2022-08-21T03:15:58;99012.28;;;20.93;100.00
8051;BME280;4068;42.158;24.732;2022-08-21T03:18:24;99002.75;;;20.84;100.00
8051;BME280;4068;42.158;24.732;2022-08-21T03:20:50;99017.09;;;20.98;100.00
8051;BME280;4068;42.158;24.732;2022-08-21T03:23:16;99013.97;;;20.94;100.00
8051;BME280;4068;42.158;24.732;2022-08-21T03:25:42;99009.56;;;20.80;100.00
8051;BME280;4068;42.158;24.732;2022-08-21T03:28:13;98979.28;;;20.78;100.00
8051;BME280;4068;42.158;24.732;2022-08-21T03:30:41;99014.81;;;21.01;100.00
8051;BME280;4068;42.158;24.732;2022-08-21T03:33:06;99006.28;;;20.91;100.00
8051;BME280;4068;42.158;24.732;2022-08-21T03:35:32;99010.63;;;20.85;100.00
8051;BME280;4068;42.158;24.732;2022-08-21T03:37:57;98989.47;;;20.82;100.00
8051;BME280;4068;42.158;24.732;2022-08-21T03:40:23;99014.81;;;21.15;100.00
8051;BME280;4068;42.158;24.732;2022-08-21T03:42:49;99027.28;;;21.23;100.00
8051;BME280;4068;42.158;24.732;2022-08-21T03:45:16;99016.72;;;21.21;100.00
8051;BME280;4068;42.158;24.732;2022-08-21T03:48:00;99018.97;;;21.11;100.00
8051;BME280;4068;42.158;24.732;2022-08-21T03:50:28;99023.09;;;21.13;100.00
8051;BME280;4068;42.158;24.732;2022-08-21T03:52:55;99017.47;;;20.95;100.00
8051;BME280;4068;42.158;24.732;2022-08-21T03:55:20;99004.84;;;20.95;100.00
8051;BME280;4068;42.158;24.732;2022-08-21T03:57:46;99032.22;;;21.06;100.00
8051;BME280;4068;42.158;24.732;2022-08-21T04:00:13;99030.16;;;21.08;100.00
8051;BME280;4068;42.158;24.732;2022-08-21T04:02:40;99027.47;;;21.01;100.00
8051;BME280;4068;42.158;24.732;2022-08-21T04:05:06;99011.47;;;20.93;100.00
8051;BME280;4068;42.158;24.732;2022-08-21T04:07:32;99037.84;;;21.17;100.00
8051;BME280;4068;42.158;24.732;2022-08-21T04:09:58;99032.44;;;21.17;100.00
8051;BME280;4068;42.158;24.732;2022-08-21T04:12:23;99034.75;;;21.14;100.00
8051;BME280;4068;42.158;24.732;2022-08-21T04:14:49;99027.25;;;21.02;100.00
8051;BME280;4068;42.158;24.732;2022-08-21T04:17:16;99039.69;;;21.03;100.00
8051;BME280;4068;42.158;24.732;2022-08-21T04:19:42;99042.59;;;21.09;100.00
8051;BME280;4068;42.158;24.732;2022-08-21T04:22:07;99039.91;;;21.15;100.00
8051;BME280;4068;42.158;24.732;2022-08-21T04:24:33;99044.28;;;21.16;100.00
8051;BME280;4068;42.158;24.732;2022-08-21T04:26:58;99025.38;;;21.03;100.00
8051;BME280;4068;42.158;24.732;2022-08-21T04:29:23;99036.59;;;21.07;100.00
8051;BME280;4068;42.158;24.732;2022-08-21T04:31:49;99038.22;;;21.08;100.00
8051;BME280;4068;42.158;24.732;2022-08-21T04:34:14;99018.53;;;20.94;100.00
8051;BME280;4068;42.158;24.732;2022-08-21T04:36:39;99030.16;;;21.01;100.00
8051;BME280;4068;42.158;24.732;2022-08-21T04:39:05;99032.66;;;21.09;100.00
8051;BME280;4068;42.158;24.732;2022-08-21T04:41:30;99038.91;;;21.16;100.00
8051;BME280;4068;42.158;24.732;2022-08-21T04:43:56;99019.78;;;21.11;100.00
8051;BME280;4068;42.158;24.732;2022-08-21T04:46:22;99029.53;;;21.06;100.00
8051;BME280;4068;42.158;24.732;2022-08-21T04:48:48;99023.53;;;21.10;100.00
8051;BME280;4068;42.158;24.732;2022-08-21T04:51:19;99020.41;;;21.07;100.00
8051;BME280;4068;42.158;24.732;2022-08-21T04:53:54;98990.31;;;20.90;100.00
8051;BME280;4068;42.158;24.732;2022-08-21T04:56:28;99006.09;;;21.06;100.00
8051;BME280;4068;42.158;24.732;2022-08-21T04:58:58;98983.06;;;20.90;100.00
8051;BME280;4068;42.158;24.732;2022-08-21T05:01:27;99000.91;;;21.04;100.00
8051;BME280;4068;42.158;24.732;2022-08-21T05:03:56;99004.03;;;21.08;100.00
8051;BME280;4068;42.158;24.732;2022-08-21T05:06:23;98996.97;;;21.07;100.00
8051;BME280;4068;42.158;24.732;2022-08-21T05:08:51;98977.69;;;20.97;100.00
8051;BME280;4068;42.158;24.732;2022-08-21T05:11:18;99002.59;;;21.19;100.00
8051;BME280;4068;42.158;24.732;2022-08-21T05:13:44;99006.34;;;21.18;100.00
8051;BME280;4068;42.158;24.732;2022-08-21T05:16:09;98973.75;;;21.13;100.00
8051;BME280;4068;42.158;24.732;2022-08-21T05:18:34;99003.84;;;21.30;100.00
8051;BME280;4068;42.158;24.732;2022-08-21T05:21:00;98997.41;;;21.37;100.00
8051;BME280;4068;42.158;24.732;2022-08-21T05:23:25;98989.31;;;21.44;100.00
8051;BME280;4068;42.158;24.732;2022-08-21T05:25:52;98996.63;;;21.57;100.00
8051;BME280;4068;42.158;24.732;2022-08-21T05:28:18;98991.22;;;21.64;100.00
8051;BME280;4068;42.158;24.732;2022-08-21T05:30:44;98977.72;;;21.44;100.00
8051;BME280;4068;42.158;24.732;2022-08-21T05:33:10;98992.69;;;21.53;100.00
8051;BME280;4068;42.158;24.732;2022-08-21T05:35:36;99002.81;;;21.58;100.00
8051;BME280;4068;42.158;24.732;2022-08-21T05:38:03;98995.59;;;21.65;100.00
8051;BME280;4068;42.158;24.732;2022-08-21T05:40:28;98984.16;;;21.56;100.00
8051;BME280;4068;42.158;24.732;2022-08-21T05:42:55;98996.59;;;21.77;100.00
8051;BME280;4068;42.158;24.732;2022-08-21T05:45:28;99006.97;;;21.94;100.00
8051;BME280;4068;42.158;24.732;2022-08-21T05:47:53;99014.63;;;21.97;100.00
8051;BME280;4068;42.158;24.732;2022-08-21T05:50:19;99008.59;;;22.08;100.00
8051;BME280;4068;42.158;24.732;2022-08-21T05:52:44;98986.34;;;22.06;100.00
8051;BME280;4068;42.158;24.732;2022-08-21T05:55:10;99014.97;;;22.27;100.00
8051;BME280;4068;42.158;24.732;2022-08-21T05:57:35;99015.38;;;22.24;100.00
8051;BME280;4068;42.158;24.732;2022-08-21T06:00:01;99008.91;;;22.32;100.00
8051;BME280;4068;42.158;24.732;2022-08-21T06:02:26;99021.41;;;22.33;100.00
8051;BME280;4068;42.158;24.732;2022-08-21T06:04:52;99023.28;;;22.26;100.00
8051;BME280;4068;42.158;24.732;2022-08-21T06:07:17;99032.22;;;22.33;100.00
8051;BME280;4068;42.158;24.732;2022-08-21T06:12:11;99023.69;;;22.29;100.00
8051;BME280;4068;42.158;24.732;2022-08-21T06:14:39;99034.72;;;22.28;100.00
8051;BME280;4068;42.158;24.732;2022-08-21T06:17:07;99025.75;;;22.27;100.00
8051;BME280;4068;42.158;24.732;2022-08-21T06:19:32;99036.56;;;22.27;100.00
8051;BME280;4068;42.158;24.732;2022-08-21T06:21:58;99022.25;;;22.13;100.00
8051;BME280;4068;42.158;24.732;2022-08-21T06:24:24;99035.75;;;22.13;100.00
8051;BME280;4068;42.158;24.732;2022-08-21T06:26:50;99029.53;;;22.19;100.00
8051;BME280;4068;42.158;24.732;2022-08-21T06:29:15;99028.72;;;22.05;100.00
8051;BME280;4068;42.158;24.732;2022-08-21T06:31:42;99022.91;;;22.09;100.00
8051;BME280;4068;42.158;24.732;2022-08-21T06:34:08;99030.78;;;22.17;100.00
8051;BME280;4068;42.158;24.732;2022-08-21T06:36:33;99025.38;;;22.17;100.00
8051;BME280;4068;42.158;24.732;2022-08-21T06:38:59;99017.06;;;22.18;100.00
8051;BME280;4068;42.158;24.732;2022-08-21T06:41:24;99025.81;;;22.20;100.00
8051;BME280;4068;42.158;24.732;2022-08-21T06:43:50;99003.78;;;22.17;100.00
8051;BME280;4068;42.158;24.732;2022-08-21T06:46:15;99002.06;;;22.36;100.00
8051;BME280;4068;42.158;24.732;2022-08-21T06:48:41;98973.25;;;22.16;100.00
8051;BME280;4068;42.158;24.732;2022-08-21T06:51:06;98995.03;;;22.35;100.00
8051;BME280;4068;42.158;24.732;2022-08-21T06:53:32;99002.66;;;22.51;100.00
8051;BME280;4068;42.158;24.732;2022-08-21T06:55:58;98974.84;;;22.37;100.00
8051;BME280;4068;42.158;24.732;2022-08-21T06:58:23;99006.16;;;22.58;100.00
8051;BME280;4068;42.158;24.732;2022-08-21T07:00:49;99010.44;;;22.73;100.00
8051;BME280;4068;42.158;24.732;2022-08-21T07:03:25;99016.13;;;22.97;100.00
8051;BME280;4068;42.158;24.732;2022-08-21T07:05:52;99008.69;;;23.24;100.00
8051;BME280;4068;42.158;24.732;2022-08-21T07:08:18;99003.91;;;23.51;100.00
8051;BME280;4068;42.158;24.732;2022-08-21T07:10:44;99011.44;;;23.74;100.00
8051;BME280;4068;42.158;24.732;2022-08-21T07:13:09;98990.19;;;23.71;100.00
8051;BME280;4068;42.158;24.732;2022-08-21T07:15:35;99015.94;;;23.81;100.00
8051;BME280;4068;42.158;24.732;2022-08-21T07:18:00;99005.72;;;23.83;100.00
8051;BME280;4068;42.158;24.732;2022-08-21T07:20:27;98989.25;;;23.84;100.00
8051;BME280;4068;42.158;24.732;2022-08-21T07:22:54;98998.09;;;23.98;100.00
8051;BME280;4068;42.158;24.732;2022-08-21T07:25:20;99015.34;;;24.22;100.00
8051;BME280;4068;42.158;24.732;2022-08-21T07:27:46;99013.88;;;24.38;100.00
8051;BME280;4068;42.158;24.732;2022-08-21T07:30:11;99018.25;;;24.39;100.00
8051;BME280;4068;42.158;24.732;2022-08-21T07:32:37;99013.88;;;24.57;100.00
8051;BME280;4068;42.158;24.732;2022-08-21T07:35:02;99011.38;;;24.55;100.00
8051;BME280;4068;42.158;24.732;2022-08-21T07:37:28;99005.22;;;24.67;100.00
8051;BME280;4068;42.158;24.732;2022-08-21T07:39:53;99000.19;;;25.01;100.00
8051;BME280;4068;42.158;24.732;2022-08-21T07:42:19;99013.94;;;25.29;100.00
8051;BME280;4068;42.158;24.732;2022-08-21T07:44:45;98987.44;;;25.43;100.00
8051;BME280;4068;42.158;24.732;2022-08-21T07:47:10;98982.97;;;25.73;100.00
8051;BME280;4068;42.158;24.732;2022-08-21T07:49:35;98987.94;;;26.11;100.00
8051;BME280;4068;42.158;24.732;2022-08-21T07:52:01;98977.88;;;26.12;100.00
8051;BME280;4068;42.158;24.732;2022-08-21T07:54:27;98970.78;;;26.23;100.00
8051;BME280;4068;42.158;24.732;2022-08-21T07:56:52;98988.34;;;26.32;100.00
8051;BME280;4068;42.158;24.732;2022-08-21T07:59:18;98992.16;;;26.19;100.00
8051;BME280;4068;42.158;24.732;2022-08-21T08:01:43;99000.91;;;26.21;100.00
8051;BME280;4068;42.158;24.732;2022-08-21T08:04:09;98998.44;;;26.20;100.00
8051;BME280;4068;42.158;24.732;2022-08-21T08:06:34;98976.34;;;25.92;100.00
8051;BME280;4068;42.158;24.732;2022-08-21T08:09:00;98999.25;;;25.84;100.00
8051;BME280;4068;42.158;24.732;2022-08-21T08:11:28;98997.38;;;25.85;100.00
8051;BME280;4068;42.158;24.732;2022-08-21T08:13:53;98991.13;;;25.73;100.00
8051;BME280;4068;42.158;24.732;2022-08-21T08:16:19;98993.00;;;25.72;100.00
8051;BME280;4068;42.158;24.732;2022-08-21T08:18:45;98973.19;;;25.60;100.00
8051;BME280;4068;42.158;24.732;2022-08-21T08:21:12;98985.22;;;25.64;100.00
8051;BME280;4068;42.158;24.732;2022-08-21T08:23:38;98968.22;;;25.45;100.00
8051;BME280;4068;42.158;24.732;2022-08-21T08:26:04;98961.59;;;25.41;100.00
8051;BME280;4068;42.158;24.732;2022-08-21T08:28:30;98979.16;;;25.38;100.00
8051;BME280;4068;42.158;24.732;2022-08-21T08:30:57;98987.31;;;25.38;100.00
8051;BME280;4068;42.158;24.732;2022-08-21T08:33:23;98978.81;;;25.35;100.00
8051;BME280;4068;42.158;24.732;2022-08-21T08:35:50;98981.59;;;25.28;100.00
8051;BME280;4068;42.158;24.732;2022-08-21T08:38:18;98974.66;;;25.20;100.00
8051;BME280;4068;42.158;24.732;2022-08-21T08:41:10;98970.03;;;25.21;100.00
8051;BME280;4068;42.158;24.732;2022-08-21T08:43:39;98953.28;;;25.12;100.00
8051;BME280;4068;42.158;24.732;2022-08-21T08:46:12;98968.59;;;25.06;100.00
8051;BME280;4068;42.158;24.732;2022-08-21T08:48:53;98964.34;;;24.98;100.00
8051;BME280;4068;42.158;24.732;2022-08-21T08:54:04;98953.91;;;25.26;100.00
8051;BME280;4068;42.158;24.732;2022-08-21T08:56:34;98955.81;;;25.37;100.00
8051;BME280;4068;42.158;24.732;2022-08-21T08:59:05;98947.28;;;25.22;100.00
8051;BME280;4068;42.158;24.732;2022-08-21T09:01:32;98946.38;;;25.52;100.00
8051;BME280;4068;42.158;24.732;2022-08-21T09:03:58;98947.09;;;25.71;100.00
8051;BME280;4068;42.158;24.732;2022-08-21T09:12:12;98947.25;;;26.28;100.00
8051;BME280;4068;42.158;24.732;2022-08-21T09:20:49;98937.81;;;26.31;99.35
8051;BME280;4068;42.158;24.732;2022-08-21T09:26:23;98936.25;;;26.64;98.03
8051;BME280;4068;42.158;24.732;2022-08-21T09:28:54;98932.94;;;26.74;97.28
8051;BME280;4068;42.158;24.732;2022-08-21T09:31:34;98914.06;;;26.55;96.73
8051;BME280;4068;42.158;24.732;2022-08-21T09:34:05;98931.34;;;26.78;96.61
8051;BME280;4068;42.158;24.732;2022-08-21T09:36:47;98905.31;;;26.82;95.84
8051;BME280;4068;42.158;24.732;2022-08-21T09:39:26;98896.25;;;26.93;95.72
8051;BME280;4068;42.158;24.732;2022-08-21T09:42:00;98907.22;;;26.81;96.16
8051;BME280;4068;42.158;24.732;2022-08-21T09:44:32;98894.44;;;26.53;96.60
8051;BME280;4068;42.158;24.732;2022-08-21T09:46:59;98914.97;;;25.79;97.21
8051;BME280;4068;42.158;24.732;2022-08-21T09:49:35;98875.72;;;25.99;99.21
8051;BME280;4068;42.158;24.732;2022-08-21T09:52:03;98901.94;;;26.46;96.61
8051;BME280;4068;42.158;24.732;2022-08-21T09:54:31;98909.34;;;26.79;96.36
8051;BME280;4068;42.158;24.732;2022-08-21T09:57:26;98917.06;;;26.99;95.76
8051;BME280;4068;42.158;24.732;2022-08-21T10:00:28;98923.72;;;27.26;94.76
8051;BME280;4068;42.158;24.732;2022-08-21T10:03:07;98930.06;;;27.31;94.32
8051;BME280;4068;42.158;24.732;2022-08-21T10:05:33;98909.22;;;27.37;92.81
8051;BME280;4068;42.158;24.732;2022-08-21T10:08:00;98926.72;;;27.41;92.96
8051;BME280;4068;42.158;24.732;2022-08-21T10:10:28;98935.50;;;27.31;93.69
8051;BME280;4068;42.158;24.732;2022-08-21T10:15:56;98930.41;;;27.01;95.13
8051;BME280;4068;42.158;24.732;2022-08-21T10:25:20;98923.94;;;26.73;98.00
8051;BME280;4068;42.158;24.732;2022-08-21T10:30:03;98921.53;;;26.48;98.58
8051;BME280;4068;42.158;24.732;2022-08-21T10:35:19;98925.59;;;26.33;98.86
8051;BME280;4068;42.158;24.732;2022-08-21T10:40:39;98922.44;;;26.25;99.56
8051;BME280;4068;42.158;24.732;2022-08-21T10:43:35;98937.38;;;26.10;99.24
8051;BME280;4068;42.158;24.732;2022-08-21T10:46:40;98936.28;;;25.99;100.00
8051;BME280;4068;42.158;24.732;2022-08-21T10:49:47;98935.72;;;26.09;100.00
8051;BME280;4068;42.158;24.732;2022-08-21T11:00:21;98942.00;;;26.10;100.00
8051;BME280;4068;42.158;24.732;2022-08-21T11:06:11;98932.38;;;26.19;100.00
8051;BME280;4068;42.158;24.732;2022-08-21T11:08:41;98930.72;;;26.18;100.00
8051;BME280;4068;42.158;24.732;2022-08-21T11:11:20;98916.69;;;26.21;100.00
8051;BME280;4068;42.158;24.732;2022-08-21T11:16:41;98927.38;;;26.40;100.00
8051;BME280;4068;42.158;24.732;2022-08-21T11:19:13;98921.44;;;26.43;100.00
8051;BME280;4068;42.158;24.732;2022-08-21T11:21:56;98922.63;;;26.76;98.37
8051;BME280;4068;42.158;24.732;2022-08-21T11:30:07;98922.25;;;27.18;95.60
8051;BME280;4068;42.158;24.732;2022-08-21T11:35:32;98916.72;;;27.47;93.38
8051;BME280;4068;42.158;24.732;2022-08-21T11:38:15;98917.53;;;27.47;92.04
8051;BME280;4068;42.158;24.732;2022-08-21T11:57:17;98903.81;;;27.59;92.13
8051;BME280;4068;42.158;24.732;2022-08-21T12:02:31;98901.69;;;27.61;92.23
8051;BME280;4068;42.158;24.732;2022-08-21T12:05:04;98899.16;;;27.37;92.58
8051;BME280;4068;42.158;24.732;2022-08-21T12:10:08;98887.44;;;27.20;94.34
8051;BME280;4068;42.158;24.732;2022-08-21T12:12:36;98890.31;;;27.30;93.88
8051;BME280;4068;42.158;24.732;2022-08-21T12:18:35;98885.22;;;27.00;95.67
8051;BME280;4068;42.158;24.732;2022-08-21T12:20:45;98873.75;;;26.98;94.94
8051;BME280;4068;42.158;24.732;2022-08-21T12:23:31;98870.66;;;26.60;98.36
8051;BME280;4068;42.158;24.732;2022-08-21T12:28:46;98869.28;;;26.29;98.49
8051;BME280;4068;42.158;24.732;2022-08-21T12:31:23;98863.16;;;26.22;100.00
8051;BME280;4068;42.158;24.732;2022-08-21T12:33:53;98857.91;;;26.03;100.00
8051;BME280;4068;42.158;24.732;2022-08-21T12:36:23;98858.59;;;26.10;100.00
8051;BME280;4068;42.158;24.732;2022-08-21T12:38:56;98859.22;;;26.00;100.00
8051;BME280;4068;42.158;24.732;2022-08-21T12:41:27;98857.97;;;26.20;100.00
8051;BME280;4068;42.158;24.732;2022-08-21T12:44:14;98848.91;;;26.14;100.00
8051;BME280;4068;42.158;24.732;2022-08-21T12:46:50;98857.16;;;26.20;100.00
8051;BME280;4068;42.158;24.732;2022-08-21T12:49:27;98852.03;;;26.23;99.57
8051;BME280;4068;42.158;24.732;2022-08-21T12:54:32;98840.13;;;26.24;100.00
8051;BME280;4068;42.158;24.732;2022-08-21T12:57:04;98838.63;;;26.62;99.61
8051;BME280;4068;42.158;24.732;2022-08-21T12:59:30;98836.88;;;26.56;99.64
8051;BME280;4068;42.158;24.732;2022-08-21T13:01:58;98808.88;;;26.56;100.00
8051;BME280;4068;42.158;24.732;2022-08-21T13:04:42;98816.53;;;27.10;97.70
8051;BME280;4068;42.158;24.732;2022-08-21T13:07:11;98811.72;;;27.34;95.48
8051;BME280;4068;42.158;24.732;2022-08-21T13:09:51;98829.88;;;27.89;93.99
8051;BME280;4068;42.158;24.732;2022-08-21T13:12:20;98833.34;;;28.07;92.36
8051;BME280;4068;42.158;24.732;2022-08-21T13:14:46;98832.38;;;28.18;91.23
8051;BME280;4068;42.158;24.732;2022-08-21T13:17:16;98828.00;;;28.17;90.28
8051;BME280;4068;42.158;24.732;2022-08-21T13:19:59;98841.59;;;28.39;89.50
8051;BME280;4068;42.158;24.732;2022-08-21T13:22:26;98826.63;;;28.42;86.81
8051;BME280;4068;42.158;24.732;2022-08-21T13:24:51;98838.06;;;28.39;88.44
8051;BME280;4068;42.158;24.732;2022-08-21T13:27:26;98817.66;;;28.47;88.96
8051;BME280;4068;42.158;24.732;2022-08-21T13:30:12;98843.66;;;28.87;87.87
8051;BME280;4068;42.158;24.732;2022-08-21T13:32:45;98831.81;;;29.03;87.13
8051;BME280;4068;42.158;24.732;2022-08-21T13:35:19;98836.47;;;29.08;88.17
8051;BME280;4068;42.158;24.732;2022-08-21T13:37:47;98838.38;;;29.07;88.13
8051;BME280;4068;42.158;24.732;2022-08-21T13:40:17;98839.34;;;28.91;86.77
8051;BME280;4068;42.158;24.732;2022-08-21T13:42:45;98834.19;;;28.95;86.96
8051;BME280;4068;42.158;24.732;2022-08-21T13:45:25;98841.75;;;28.87;85.68
8051;BME280;4068;42.158;24.732;2022-08-21T13:47:51;98835.22;;;28.88;85.56
8051;BME280;4068;42.158;24.732;2022-08-21T13:50:20;98829.47;;;28.85;87.56
8051;BME280;4068;42.158;24.732;2022-08-21T13:55:20;98832.03;;;28.64;87.71
8051;BME280;4068;42.158;24.732;2022-08-21T13:57:46;98829.25;;;28.59;87.24
8051;BME280;4068;42.158;24.732;2022-08-21T14:01:00;98814.38;;;28.72;86.10
8051;BME280;4068;42.158;24.732;2022-08-21T14:03:08;98832.22;;;28.90;85.82
8051;BME280;4068;42.158;24.732;2022-08-21T14:05:37;98834.81;;;29.07;85.06
8051;BME280;4068;42.158;24.732;2022-08-21T14:10:43;98815.03;;;29.27;84.39
8051;BME280;4068;42.158;24.732;2022-08-21T14:15:58;98818.97;;;29.47;81.65
8051;BME280;4068;42.158;24.732;2022-08-21T14:18:24;98822.16;;;29.28;82.23
8051;BME280;4068;42.158;24.732;2022-08-21T14:20:52;98805.22;;;29.26;83.46
8051;BME280;4068;42.158;24.732;2022-08-21T14:23:28;98804.16;;;29.32;83.38
8051;BME280;4068;42.158;24.732;2022-08-21T14:25:58;98810.03;;;29.14;83.60
8051;BME280;4068;42.158;24.732;2022-08-21T14:28:33;98805.53;;;28.97;83.66
8051;BME280;4068;42.158;24.732;2022-08-21T14:31:19;98792.00;;;28.42;86.34
8051;BME280;4068;42.158;24.732;2022-08-21T14:33:44;98789.59;;;28.46;87.13
8051;BME280;4068;42.158;24.732;2022-08-21T14:36:10;98785.50;;;28.49;87.29
8051;BME280;4068;42.158;24.732;2022-08-21T14:38:38;98796.66;;;28.74;86.63
8051;BME280;4068;42.158;24.732;2022-08-21T14:41:15;98793.50;;;28.88;85.72
8051;BME280;4068;42.158;24.732;2022-08-21T14:43:42;98786.81;;;29.11;85.84
8051;BME280;4068;42.158;24.732;2022-08-21T14:46:08;98779.91;;;29.41;83.46
8051;BME280;4068;42.158;24.732;2022-08-21T14:48:33;98777.47;;;29.44;81.67